createdAt,value
2023-02-27T00:02:58.401Z,72.78
2023-02-27T00:06:00.710Z,72.95
2023-02-27T00:09:03.781Z,74.40
2023-02-27T00:12:06.270Z,73.16
2023-02-27T00:15:11.525Z,73.27
2023-02-27T00:18:13.794Z,73.10
2023-02-27T00:21:15.987Z,72.30
2023-02-27T00:24:18.255Z,71.81
2023-02-27T00:27:20.439Z,72.31
2023-02-27T00:30:22.666Z,72.59
2023-02-27T00:33:24.839Z,72.61
2023-02-27T00:36:27.019Z,72.95
2023-02-27T00:39:29.308Z,73.72
2023-02-27T00:42:32.172Z,73.49
2023-02-27T00:45:34.350Z,72.79
2023-02-27T00:48:36.792Z,73.00
2023-02-27T00:51:39.848Z,72.75
2023-02-27T00:54:42.135Z,73.29
2023-02-27T00:57:44.422Z,72.00
2023-02-27T01:00:46.646Z,72.45
2023-02-27T01:03:48.890Z,72.52
2023-02-27T01:06:51.441Z,73.32
2023-02-27T01:09:53.663Z,72.31
2023-02-27T01:12:55.789Z,72.86
2023-02-27T01:15:58.071Z,73.51
2023-02-27T01:19:00.276Z,72.81
2023-02-27T01:22:02.533Z,73.44
2023-02-27T01:25:05.057Z,73.19
2023-02-27T01:28:07.238Z,73.78
2023-02-27T01:31:09.456Z,73.54
2023-02-27T01:34:11.703Z,73.65
2023-02-27T01:37:14.632Z,73.76
2023-02-27T01:40:16.830Z,73.64
2023-02-27T01:43:21.225Z,74.81
2023-02-27T01:46:24.063Z,74.85
2023-02-27T01:49:32.137Z,73.03
2023-02-27T01:52:34.869Z,72.33
2023-02-27T01:55:39.271Z,72.46
2023-02-27T01:58:43.151Z,71.19
2023-02-27T02:01:45.642Z,70.97
2023-02-27T02:04:48.473Z,70.58
2023-02-27T02:07:50.835Z,71.53
2023-02-27T02:10:53.800Z,70.40
2023-02-27T02:13:59.483Z,70.47
2023-02-27T02:17:30.733Z,69.41
2023-02-27T02:20:52.424Z,69.82
2023-02-27T02:24:03.199Z,70.01
2023-02-27T02:27:08.411Z,69.94
2023-02-27T02:30:29.844Z,69.46
2023-02-27T02:33:50.716Z,69.81
2023-02-27T02:37:14.137Z,69.86
2023-02-27T02:40:31.663Z,68.80
2023-02-27T02:43:48.801Z,69.32
2023-02-27T02:47:08.348Z,68.92
2023-02-27T02:50:14.239Z,68.25
2023-02-27T02:53:37.685Z,69.51
2023-02-27T02:56:46.602Z,69.40
2023-02-27T02:59:55.453Z,69.80
2023-02-27T03:03:12.374Z,69.22
2023-02-27T03:06:18.798Z,68.91
2023-02-27T03:09:31.782Z,69.16
2023-02-27T03:12:34.118Z,68.40
2023-02-27T03:15:49.556Z,68.66
2023-02-27T03:19:01.726Z,69.57
2023-02-27T03:22:13.741Z,69.37
2023-02-27T03:25:16.076Z,69.15
2023-02-27T03:28:22.187Z,68.91
2023-02-27T03:31:50.966Z,69.37
2023-02-27T03:34:53.269Z,69.00
2023-02-27T03:38:01.930Z,68.44
2023-02-27T03:41:30.299Z,67.75
2023-02-27T03:44:40.728Z,69.02
2023-02-27T03:47:42.954Z,68.29
2023-02-27T03:50:45.320Z,68.01
2023-02-27T03:54:09.480Z,67.79
2023-02-27T03:57:15.216Z,68.06
2023-02-27T04:00:22.671Z,68.40
2023-02-27T04:03:25.337Z,67.63
2023-02-27T04:06:56.779Z,67.05
2023-02-27T04:10:21.440Z,68.15
2023-02-27T04:13:26.716Z,67.19
2023-02-27T04:16:51.268Z,67.70
2023-02-27T04:20:14.834Z,67.13
2023-02-27T04:23:41.030Z,67.09
2023-02-27T04:26:48.522Z,67.23
2023-02-27T04:29:58.213Z,67.79
2023-02-27T04:33:10.632Z,67.32
2023-02-27T04:36:36.413Z,67.96
2023-02-27T04:40:02.808Z,67.53
2023-02-27T04:43:07.707Z,66.33
2023-02-27T04:46:13.267Z,67.09
2023-02-27T04:49:19.497Z,66.57
2023-02-27T04:52:31.293Z,66.90
2023-02-27T04:55:37.296Z,66.18
2023-02-27T04:58:50.652Z,66.05
2023-02-27T05:02:24.933Z,66.54
2023-02-27T05:05:30.663Z,66.09
2023-02-27T05:08:43.788Z,66.09
2023-02-27T05:12:02.246Z,65.22
2023-02-27T05:15:13.094Z,65.79
2023-02-27T05:18:18.498Z,65.19
2023-02-27T05:21:29.643Z,65.09
2023-02-27T05:24:49.865Z,64.94
2023-02-27T05:28:02.238Z,65.43
2023-02-27T05:31:04.512Z,65.36
2023-02-27T05:34:12.384Z,65.23
2023-02-27T05:37:30.863Z,65.64
2023-02-27T05:40:38.204Z,65.46
2023-02-27T05:43:51.099Z,65.27
2023-02-27T05:46:57.032Z,66.21
2023-02-27T05:50:06.267Z,66.63
2023-02-27T05:53:11.835Z,67.47
2023-02-27T05:56:16.651Z,67.75
2023-02-27T05:59:24.246Z,67.51
2023-02-27T06:02:26.977Z,67.28
2023-02-27T06:05:29.419Z,68.08
2023-02-27T06:08:32.122Z,68.20
2023-02-27T06:11:34.313Z,67.70
2023-02-27T06:14:36.438Z,68.49
2023-02-27T06:17:39.200Z,68.96
2023-02-27T06:20:42.168Z,68.52
2023-02-27T06:23:44.386Z,69.02
2023-02-27T06:26:47.266Z,67.31
2023-02-27T06:29:49.483Z,66.87
2023-02-27T06:32:51.668Z,67.43
2023-02-27T06:35:53.930Z,66.60
2023-02-27T06:38:56.121Z,66.94
2023-02-27T06:41:58.342Z,65.96
2023-02-27T06:45:00.569Z,66.25
2023-02-27T06:48:02.917Z,66.30
2023-02-27T06:51:05.275Z,65.07
2023-02-27T06:54:08.162Z,65.11
2023-02-27T06:57:10.388Z,65.50
2023-02-27T07:00:13.281Z,64.58
2023-02-27T07:03:15.495Z,64.91
2023-02-27T07:06:17.735Z,63.99
2023-02-27T07:09:19.938Z,63.66
2023-02-27T07:12:22.391Z,62.61
2023-02-27T07:15:24.732Z,63.09
2023-02-27T07:18:27.015Z,62.48
2023-02-27T07:21:29.195Z,61.65
2023-02-27T07:24:31.406Z,62.83
2023-02-27T07:27:33.980Z,62.93
2023-02-27T07:30:36.194Z,61.36
2023-02-27T07:33:38.459Z,61.45
2023-02-27T07:36:40.752Z,62.20
2023-02-27T07:39:42.934Z,60.62
2023-02-27T07:42:48.185Z,61.07
2023-02-27T07:45:51.746Z,61.68
2023-02-27T07:48:54.510Z,60.32
2023-02-27T07:51:56.730Z,61.05
2023-02-27T07:54:58.888Z,59.41
2023-02-27T07:58:01.108Z,59.73
2023-02-27T08:01:03.269Z,59.77
2023-02-27T08:04:05.572Z,59.33
2023-02-27T08:07:08.209Z,59.54
2023-02-27T08:10:11.230Z,59.17
2023-02-27T08:13:14.340Z,58.08
2023-02-27T08:16:16.613Z,58.28
2023-02-27T08:19:18.820Z,57.55
2023-02-27T08:22:21.541Z,57.85
2023-02-27T08:25:23.950Z,58.71
2023-02-27T08:28:26.623Z,55.76
2023-02-27T08:31:28.992Z,56.09
2023-02-27T08:34:31.264Z,56.10
2023-02-27T08:37:33.497Z,55.38
2023-02-27T08:40:35.760Z,56.26
2023-02-27T08:43:37.941Z,55.96
2023-02-27T08:46:40.194Z,55.41
2023-02-27T08:49:42.367Z,55.89
2023-02-27T08:52:44.531Z,55.78
2023-02-27T08:55:51.231Z,55.88
2023-02-27T08:58:53.927Z,54.39
2023-02-27T09:01:56.096Z,54.95
2023-02-27T09:04:59.110Z,54.84
2023-02-27T09:08:02.259Z,53.90
2023-02-27T09:11:05.183Z,54.22
2023-02-27T09:14:07.854Z,54.03
2023-02-27T09:17:10.058Z,53.41
2023-02-27T09:20:12.736Z,52.93
2023-02-27T09:23:15.003Z,52.51
2023-02-27T09:26:17.554Z,53.11
2023-02-27T09:29:19.807Z,52.67
2023-02-27T09:32:23.280Z,52.74
2023-02-27T09:35:25.736Z,53.19
2023-02-27T09:38:27.924Z,51.77
2023-02-27T09:41:37.430Z,52.69
2023-02-27T09:44:47.992Z,52.36
2023-02-27T09:47:54.334Z,53.02
2023-02-27T09:50:57.450Z,52.68
2023-02-27T09:54:01.576Z,52.78
2023-02-27T09:57:05.577Z,53.05
2023-02-27T10:00:23.790Z,52.93
2023-02-27T10:03:28.661Z,52.93
2023-02-27T10:06:40.996Z,53.17
2023-02-27T10:09:57.050Z,53.47
2023-02-27T10:13:13.944Z,52.72
2023-02-27T10:16:20.171Z,52.81
2023-02-27T10:19:31.208Z,52.55
2023-02-27T10:22:42.047Z,51.75
2023-02-27T10:25:46.569Z,52.13
2023-02-27T10:28:49.231Z,51.47
2023-02-27T10:32:01.353Z,51.42
2023-02-27T10:35:33.214Z,51.86
2023-02-27T10:38:37.605Z,52.79
2023-02-27T10:41:40.771Z,52.48
2023-02-27T10:44:43.048Z,52.32
2023-02-27T10:47:45.244Z,52.63
2023-02-27T10:50:52.341Z,51.96
2023-02-27T10:54:19.623Z,52.12
2023-02-27T10:57:26.680Z,51.17
2023-02-27T11:00:45.485Z,52.00
2023-02-27T11:03:48.843Z,51.83
2023-02-27T11:06:53.523Z,50.86
2023-02-27T11:10:06.332Z,52.14
2023-02-27T11:13:21.624Z,50.73
2023-02-27T11:16:23.815Z,49.58
2023-02-27T11:19:35.042Z,50.48
2023-02-27T11:22:37.263Z,51.12
2023-02-27T11:25:39.501Z,51.62
2023-02-27T11:28:42.077Z,51.19
2023-02-27T11:31:51.371Z,51.39
2023-02-27T11:34:53.650Z,51.03
2023-02-27T11:37:59.336Z,50.34
2023-02-27T11:41:05.871Z,50.74
2023-02-27T11:44:17.585Z,50.53
2023-02-27T11:47:35.653Z,50.25
2023-02-27T11:51:11.442Z,51.38
2023-02-27T11:54:18.920Z,50.70
2023-02-27T11:57:27.043Z,50.90
2023-02-27T12:00:39.153Z,50.36
2023-02-27T12:03:49.569Z,50.60
2023-02-27T12:07:13.868Z,51.78
2023-02-27T12:10:19.695Z,51.10
2023-02-27T12:13:25.083Z,51.36
2023-02-27T12:16:32.944Z,50.57
2023-02-27T12:19:54.029Z,51.14
2023-02-27T12:22:56.446Z,49.80
2023-02-27T12:26:07.255Z,49.71
2023-02-27T12:29:23.787Z,49.41
2023-02-27T12:32:39.373Z,49.72
2023-02-27T12:35:43.215Z,50.04
2023-02-27T12:38:45.440Z,50.36
2023-02-27T12:41:56.949Z,49.85
2023-02-27T12:45:37.858Z,50.67
2023-02-27T12:48:39.889Z,50.16
2023-02-27T12:51:42.809Z,52.00
2023-02-27T12:55:02.039Z,48.65
2023-02-27T12:58:06.900Z,50.77
2023-02-27T13:01:18.357Z,47.27
2023-02-27T13:04:25.061Z,48.24
2023-02-27T13:07:34.165Z,48.12
2023-02-27T13:10:45.155Z,47.74
2023-02-27T13:13:59.566Z,47.71
2023-02-27T13:17:39.890Z,49.29
2023-02-27T13:20:50.175Z,48.95
2023-02-27T13:24:24.168Z,48.80
2023-02-27T13:27:32.437Z,48.78
2023-02-27T13:31:03.816Z,48.78
2023-02-27T13:34:08.740Z,49.11
2023-02-27T13:37:11.035Z,49.86
2023-02-27T13:40:31.903Z,51.13
2023-02-27T13:43:49.834Z,48.74
2023-02-27T13:46:52.280Z,49.12
2023-02-27T13:49:55.353Z,49.94
2023-02-27T13:53:09.099Z,49.64
2023-02-27T13:56:22.850Z,49.61
2023-02-27T13:59:31.537Z,50.40
2023-02-27T14:02:46.624Z,49.64
2023-02-27T14:05:58.063Z,50.28
2023-02-27T14:09:14.293Z,49.91
2023-02-27T14:12:44.420Z,49.97
2023-02-27T14:15:47.165Z,49.51
2023-02-27T14:18:56.385Z,49.38
2023-02-27T14:22:24.448Z,50.17
2023-02-27T14:25:32.148Z,49.13
2023-02-27T14:28:38.019Z,49.70
2023-02-27T14:31:40.851Z,49.94
2023-02-27T14:34:43.110Z,50.69
2023-02-27T14:37:45.785Z,50.45
2023-02-27T14:41:05.182Z,50.87
2023-02-27T14:44:24.910Z,49.10
2023-02-27T14:47:32.304Z,49.16
2023-02-27T14:50:37.467Z,49.68
2023-02-27T14:53:39.645Z,50.71
2023-02-27T14:56:46.001Z,48.69
2023-02-27T14:59:50.939Z,48.67
2023-02-27T15:02:53.175Z,48.40
2023-02-27T15:05:59.192Z,49.27
2023-02-27T15:09:01.515Z,49.26
2023-02-27T15:12:04.985Z,49.76
2023-02-27T15:15:09.776Z,51.08
2023-02-27T15:18:14.192Z,50.54
2023-02-27T15:21:17.186Z,50.43
2023-02-27T15:24:25.651Z,50.84
2023-02-27T15:27:28.519Z,49.99
2023-02-27T15:30:31.599Z,49.94
2023-02-27T15:33:33.880Z,49.95
2023-02-27T15:36:36.779Z,50.16
2023-02-27T15:39:39.010Z,49.28
2023-02-27T15:42:41.767Z,49.38
2023-02-27T15:45:44.090Z,50.99
2023-02-27T15:48:46.409Z,49.21
2023-02-27T15:51:55.563Z,48.74
2023-02-27T15:55:05.785Z,49.17
2023-02-27T15:58:24.699Z,48.60
2023-02-27T16:01:32.505Z,48.98
2023-02-27T16:04:35.813Z,50.08
2023-02-27T16:07:40.855Z,49.69
2023-02-27T16:10:45.074Z,51.38
2023-02-27T16:13:48.311Z,50.01
2023-02-27T16:16:55.129Z,50.45
2023-02-27T16:20:01.793Z,50.80
2023-02-27T16:23:15.994Z,49.90
2023-02-27T16:26:31.418Z,49.84
2023-02-27T16:29:36.142Z,49.58
2023-02-27T16:32:44.177Z,49.75
2023-02-27T16:35:46.713Z,50.60
2023-02-27T16:38:49.035Z,51.43
2023-02-27T16:41:55.199Z,51.63
2023-02-27T16:44:57.631Z,53.63
2023-02-27T16:48:00.849Z,56.06
2023-02-27T16:51:03.883Z,58.00
2023-02-27T16:54:11.124Z,60.54
2023-02-27T16:57:13.965Z,62.06
2023-02-27T17:00:17.787Z,62.40
2023-02-27T17:03:19.985Z,63.09
2023-02-27T17:06:22.129Z,63.16
2023-02-27T17:09:27.321Z,63.49
2023-02-27T17:12:29.535Z,62.62
2023-02-27T17:15:31.705Z,61.70
2023-02-27T17:18:34.137Z,61.81
2023-02-27T17:21:36.579Z,62.00
2023-02-27T17:24:39.101Z,63.28
2023-02-27T17:27:44.458Z,65.55
2023-02-27T17:30:47.433Z,67.77
2023-02-27T17:33:56.272Z,68.51
2023-02-27T17:36:58.455Z,69.11
2023-02-27T17:40:04.145Z,71.40
2023-02-27T17:43:06.854Z,68.71
2023-02-27T17:46:10.310Z,69.24
2023-02-27T17:49:13.483Z,70.47
2023-02-27T17:52:15.925Z,69.21
2023-02-27T17:55:19.034Z,67.75
2023-02-27T17:58:21.296Z,64.80
2023-02-27T18:01:25.948Z,63.54
2023-02-27T18:04:28.644Z,64.25
2023-02-27T18:07:31.539Z,64.23
2023-02-27T18:10:34.157Z,63.01
2023-02-27T18:13:36.356Z,63.61
2023-02-27T18:16:38.891Z,63.51
2023-02-27T18:19:42.186Z,64.28
2023-02-27T18:22:44.636Z,64.63
2023-02-27T18:25:54.105Z,64.28
2023-02-27T18:29:02.236Z,64.35
2023-02-27T18:32:04.798Z,63.72
2023-02-27T18:35:07.756Z,63.56
2023-02-27T18:38:10.197Z,64.63
2023-02-27T18:41:13.041Z,64.14
2023-02-27T18:44:15.529Z,64.82
2023-02-27T18:47:18.019Z,65.41
2023-02-27T18:50:20.428Z,65.54
2023-02-27T18:53:22.894Z,66.07
2023-02-27T18:56:25.873Z,65.92
2023-02-27T18:59:28.351Z,65.67
2023-02-27T19:02:30.851Z,65.82
2023-02-27T19:05:33.095Z,64.90
2023-02-27T19:08:35.573Z,64.66
2023-02-27T19:11:38.179Z,65.12
2023-02-27T19:14:41.191Z,64.25
2023-02-27T19:17:43.732Z,65.52
2023-02-27T19:20:46.181Z,64.69
2023-02-27T19:23:48.647Z,64.52
2023-02-27T19:26:53.358Z,65.04
2023-02-27T19:29:56.025Z,64.40
2023-02-27T19:32:58.819Z,64.44
2023-02-27T19:36:29.059Z,64.26
2023-02-27T19:39:32.004Z,64.18
2023-02-27T19:42:34.569Z,65.89
2023-02-27T19:45:40.756Z,64.76
2023-02-27T19:48:44.069Z,65.69
2023-02-27T19:51:47.577Z,66.35
2023-02-27T19:54:49.727Z,65.53
2023-02-27T19:57:52.299Z,65.84
2023-02-27T20:00:54.859Z,66.02
2023-02-27T20:03:59.124Z,66.00
2023-02-27T20:07:01.670Z,65.57
2023-02-27T20:10:05.705Z,65.95
2023-02-27T20:13:08.493Z,66.26
2023-02-27T20:16:13.985Z,66.30
2023-02-27T20:19:17.951Z,66.55
2023-02-27T20:22:20.367Z,66.58
2023-02-27T20:25:22.576Z,66.55
2023-02-27T20:28:25.688Z,66.35
2023-02-27T20:31:30.621Z,66.29
2023-02-27T20:34:33.896Z,66.83
2023-02-27T20:37:36.273Z,67.62
2023-02-27T20:40:38.756Z,66.69
2023-02-27T20:43:44.916Z,67.40
2023-02-27T20:46:49.283Z,66.95
2023-02-27T20:49:51.841Z,66.00
2023-02-27T20:52:55.086Z,67.16
2023-02-27T20:55:57.540Z,66.95
2023-02-27T20:59:02.182Z,65.59
2023-02-27T21:02:07.016Z,64.94
2023-02-27T21:05:09.430Z,65.77
2023-02-27T21:08:11.800Z,66.84
2023-02-27T21:11:19.942Z,66.77
2023-02-27T21:14:23.466Z,66.25
2023-02-27T21:17:26.276Z,67.67
2023-02-27T21:20:28.629Z,68.57
2023-02-27T21:23:31.093Z,70.77
2023-02-27T21:26:37.859Z,71.51
2023-02-27T21:29:40.334Z,73.25
2023-02-27T21:32:42.625Z,73.82
2023-02-27T21:35:46.667Z,77.83
2023-02-27T21:38:49.132Z,77.03
2023-02-27T21:41:51.737Z,75.35
2023-02-27T21:44:54.106Z,74.59
2023-02-27T21:47:56.283Z,77.08
2023-02-27T21:50:59.498Z,79.87
2023-02-27T21:54:03.107Z,80.05
2023-02-27T21:57:05.516Z,78.31
2023-02-27T22:00:11.159Z,80.11
2023-02-27T22:03:13.453Z,86.81
2023-02-27T22:06:15.797Z,87.44
2023-02-27T22:09:18.287Z,80.11
2023-02-27T22:12:22.002Z,81.03
2023-02-27T22:15:24.197Z,80.45
2023-02-27T22:18:26.969Z,79.19
2023-02-27T22:21:29.366Z,81.79
2023-02-27T22:24:31.786Z,81.22
2023-02-27T22:27:33.970Z,81.32
2023-02-27T22:30:36.270Z,85.10
2023-02-27T22:33:39.673Z,86.58
2023-02-27T22:36:41.906Z,81.89
2023-02-27T22:39:44.109Z,80.81
2023-02-27T22:42:48.037Z,82.60
2023-02-27T22:45:50.447Z,87.06
2023-02-27T22:49:01.142Z,86.51
2023-02-27T22:52:03.477Z,85.29
2023-02-27T22:55:06.240Z,86.36
2023-02-27T22:58:08.387Z,84.02
2023-02-27T23:01:22.011Z,86.48
2023-02-27T23:04:24.272Z,87.61
2023-02-27T23:07:26.632Z,88.98
2023-02-27T23:10:28.783Z,88.02
2023-02-27T23:13:32.182Z,89.86
2023-02-27T23:16:34.532Z,91.50
2023-02-27T23:19:36.738Z,88.44
2023-02-27T23:22:38.912Z,91.27
2023-02-27T23:25:41.206Z,92.39
2023-02-27T23:28:43.416Z,88.86
2023-02-27T23:31:45.746Z,82.56
2023-02-27T23:34:49.847Z,80.89
2023-02-27T23:37:56.659Z,83.45
2023-02-27T23:41:05.089Z,87.24
2023-02-27T23:44:07.313Z,89.36
2023-02-27T23:47:09.494Z,90.56
2023-02-27T23:50:12.514Z,96.31
2023-02-27T23:53:15.082Z,95.30
2023-02-27T23:56:21.632Z,100.00
2023-02-27T23:59:23.796Z,100.00
